sensor_id;sensor_type;location;lat;lon;timestamp;pressure;altitude;pressure_sealevel;temperature;humidity
77227;BME280;66234;47.642;19.144;2023-06-22T00:02:02;100512.66;;;21.65;86.74
77227;BME280;66234;47.642;19.144;2023-06-22T00:05:05;100509.94;;;21.55;88.43
77227;BME280;66234;47.642;19.144;2023-06-22T00:08:07;100503.41;;;21.46;88.88
77227;BME280;66234;47.642;19.144;2023-06-22T00:11:10;100502.34;;;21.42;89.64
77227;BME280;66234;47.642;19.144;2023-06-22T00:14:13;100519.47;;;21.48;89.54
77227;BME280;66234;47.642;19.144;2023-06-22T00:17:15;100506.41;;;21.45;89.25
77227;BME280;66234;47.642;19.144;2023-06-22T00:20:18;100507.75;;;21.57;90.83
77227;BME280;66234;47.642;19.144;2023-06-22T00:23:20;100505.59;;;21.49;89.11
77227;BME280;66234;47.642;19.144;2023-06-22T00:26:23;100492.81;;;21.45;90.04
77227;BME280;66234;47.642;19.144;2023-06-22T00:29:25;100494.41;;;21.46;90.40
77227;BME280;66234;47.642;19.144;2023-06-22T00:32:31;100494.19;;;21.47;90.36
77227;BME280;66234;47.642;19.144;2023-06-22T00:35:33;100493.09;;;21.53;89.48
77227;BME280;66234;47.642;19.144;2023-06-22T00:38:36;100492.53;;;21.46;90.74
77227;BME280;66234;47.642;19.144;2023-06-22T00:41:43;100499.88;;;21.46;89.36
77227;BME280;66234;47.642;19.144;2023-06-22T00:44:45;100510.47;;;21.32;90.27
77227;BME280;66234;47.642;19.144;2023-06-22T00:47:53;100511.84;;;21.35;90.20
77227;BME280;66234;47.642;19.144;2023-06-22T00:50:55;100523.25;;;21.37;90.27
77227;BME280;66234;47.642;19.144;2023-06-22T00:53:58;100522.19;;;21.33;90.70
77227;BME280;66234;47.642;19.144;2023-06-22T00:57:02;100530.06;;;21.29;91.88
77227;BME280;66234;47.642;19.144;2023-06-22T01:00:05;100510.72;;;21.26;92.76
77227;BME280;66234;47.642;19.144;2023-06-22T01:03:09;100510.75;;;21.21;92.74
77227;BME280;66234;47.642;19.144;2023-06-22T01:06:16;100508.56;;;21.12;93.32
77227;BME280;66234;47.642;19.144;2023-06-22T01:09:31;100509.38;;;21.08;93.25
77227;BME280;66234;47.642;19.144;2023-06-22T01:12:42;100512.91;;;21.03;93.45
77227;BME280;66234;47.642;19.144;2023-06-22T01:15:53;100513.44;;;21.10;93.90
77227;BME280;66234;47.642;19.144;2023-06-22T01:19:07;100514.81;;;21.08;93.79
77227;BME280;66234;47.642;19.144;2023-06-22T01:22:17;100523.22;;;21.06;93.13
77227;BME280;66234;47.642;19.144;2023-06-22T01:25:23;100531.91;;;21.08;93.46
77227;BME280;66234;47.642;19.144;2023-06-22T01:32:04;100537.09;;;21.05;93.29
77227;BME280;66234;47.642;19.144;2023-06-22T01:35:11;100527.03;;;21.00;92.90
77227;BME280;66234;47.642;19.144;2023-06-22T01:38:15;100525.09;;;21.01;93.43
77227;BME280;66234;47.642;19.144;2023-06-22T01:41:17;100522.94;;;20.98;92.35
77227;BME280;66234;47.642;19.144;2023-06-22T01:44:21;100520.47;;;20.96;93.01
77227;BME280;66234;47.642;19.144;2023-06-22T01:47:25;100524.22;;;20.85;92.65
77227;BME280;66234;47.642;19.144;2023-06-22T01:50:30;100527.22;;;20.89;93.70
77227;BME280;66234;47.642;19.144;2023-06-22T01:53:33;100514.44;;;20.84;92.65
77227;BME280;66234;47.642;19.144;2023-06-22T01:56:36;100532.09;;;20.87;92.13
77227;BME280;66234;47.642;19.144;2023-06-22T02:00:00;100527.22;;;20.89;91.88
77227;BME280;66234;47.642;19.144;2023-06-22T02:06:24;100521.16;;;20.67;92.41
77227;BME280;66234;47.642;19.144;2023-06-22T02:09:29;100529.06;;;20.68;92.48
77227;BME280;66234;47.642;19.144;2023-06-22T02:12:34;100539.16;;;20.73;92.73
77227;BME280;66234;47.642;19.144;2023-06-22T02:15:38;100524.19;;;20.70;92.67
77227;BME280;66234;47.642;19.144;2023-06-22T02:18:48;100533.72;;;20.73;92.44
77227;BME280;66234;47.642;19.144;2023-06-22T02:21:54;100528.78;;;20.65;93.02
77227;BME280;66234;47.642;19.144;2023-06-22T02:24:56;100524.69;;;20.57;93.34
77227;BME280;66234;47.642;19.144;2023-06-22T02:28:00;100528.75;;;20.60;93.68
77227;BME280;66234;47.642;19.144;2023-06-22T02:31:02;100535.53;;;20.52;93.60
77227;BME280;66234;47.642;19.144;2023-06-22T02:34:05;100539.09;;;20.63;92.83
77227;BME280;66234;47.642;19.144;2023-06-22T02:37:07;100548.59;;;20.60;92.48
77227;BME280;66234;47.642;19.144;2023-06-22T02:40:10;100552.63;;;20.48;91.67
77227;BME280;66234;47.642;19.144;2023-06-22T02:43:13;100553.09;;;20.35;92.64
77227;BME280;66234;47.642;19.144;2023-06-22T02:46:15;100548.13;;;20.22;93.43
77227;BME280;66234;47.642;19.144;2023-06-22T02:49:20;100548.66;;;20.19;93.46
77227;BME280;66234;47.642;19.144;2023-06-22T02:52:22;100539.47;;;20.30;93.58
77227;BME280;66234;47.642;19.144;2023-06-22T02:55:25;100555.19;;;20.23;92.82
77227;BME280;66234;47.642;19.144;2023-06-22T02:58:31;100565.34;;;20.37;91.49
77227;BME280;66234;47.642;19.144;2023-06-22T03:01:44;100555.22;;;20.33;91.73
77227;BME280;66234;47.642;19.144;2023-06-22T03:04:53;100556.28;;;20.27;91.25
77227;BME280;66234;47.642;19.144;2023-06-22T03:07:56;100570.78;;;20.37;91.79
77227;BME280;66234;47.642;19.144;2023-06-22T03:11:00;100549.00;;;20.32;90.83
77227;BME280;66234;47.642;19.144;2023-06-22T03:14:02;100556.66;;;20.40;91.32
77227;BME280;66234;47.642;19.144;2023-06-22T03:17:05;100547.41;;;20.41;90.60
77227;BME280;66234;47.642;19.144;2023-06-22T03:20:09;100532.53;;;20.54;90.61
77227;BME280;66234;47.642;19.144;2023-06-22T03:23:15;100543.94;;;20.51;90.65
77227;BME280;66234;47.642;19.144;2023-06-22T03:26:19;100557.03;;;20.59;90.04
77227;BME280;66234;47.642;19.144;2023-06-22T03:29:22;100554.00;;;20.55;89.80
77227;BME280;66234;47.642;19.144;2023-06-22T03:32:24;100543.69;;;20.52;89.84
77227;BME280;66234;47.642;19.144;2023-06-22T03:35:30;100540.91;;;20.42;90.00
77227;BME280;66234;47.642;19.144;2023-06-22T03:38:33;100552.88;;;20.51;89.84
77227;BME280;66234;47.642;19.144;2023-06-22T03:41:35;100554.28;;;20.54;89.76
77227;BME280;66234;47.642;19.144;2023-06-22T03:44:38;100545.03;;;20.55;89.98
77227;BME280;66234;47.642;19.144;2023-06-22T03:47:41;100538.00;;;20.59;90.22
77227;BME280;66234;47.642;19.144;2023-06-22T03:50:44;100536.38;;;20.63;90.09
77227;BME280;66234;47.642;19.144;2023-06-22T03:53:46;100540.22;;;20.72;89.97
77227;BME280;66234;47.642;19.144;2023-06-22T03:56:50;100552.19;;;20.71;89.73
77227;BME280;66234;47.642;19.144;2023-06-22T03:59:56;100556.47;;;20.57;90.53
77227;BME280;66234;47.642;19.144;2023-06-22T04:02:58;100555.09;;;20.59;90.49
77227;BME280;66234;47.642;19.144;2023-06-22T04:06:02;100567.13;;;20.73;90.34
77227;BME280;66234;47.642;19.144;2023-06-22T04:09:06;100571.75;;;20.78;91.29
77227;BME280;66234;47.642;19.144;2023-06-22T04:12:08;100566.63;;;20.81;90.96
77227;BME280;66234;47.642;19.144;2023-06-22T04:15:11;100577.53;;;20.91;91.01
77227;BME280;66234;47.642;19.144;2023-06-22T04:18:14;100579.47;;;21.01;90.42
77227;BME280;66234;47.642;19.144;2023-06-22T04:21:17;100580.38;;;21.22;89.20
77227;BME280;66234;47.642;19.144;2023-06-22T04:24:21;100578.72;;;21.26;88.79
77227;BME280;66234;47.642;19.144;2023-06-22T04:27:24;100576.03;;;21.21;89.39
77227;BME280;66234;47.642;19.144;2023-06-22T04:30:27;100572.25;;;21.32;89.25
77227;BME280;66234;47.642;19.144;2023-06-22T04:33:31;100575.78;;;21.57;87.71
77227;BME280;66234;47.642;19.144;2023-06-22T04:36:38;100573.06;;;21.57;87.82
77227;BME280;66234;47.642;19.144;2023-06-22T04:39:42;100568.44;;;21.68;86.81
77227;BME280;66234;47.642;19.144;2023-06-22T04:42:45;100574.97;;;21.62;87.12
77227;BME280;66234;47.642;19.144;2023-06-22T04:45:54;100586.41;;;21.49;87.84
77227;BME280;66234;47.642;19.144;2023-06-22T04:48:56;100580.16;;;21.68;87.54
77227;BME280;66234;47.642;19.144;2023-06-22T04:52:00;100590.00;;;21.94;86.38
77227;BME280;66234;47.642;19.144;2023-06-22T04:55:03;100589.47;;;21.82;86.42
77227;BME280;66234;47.642;19.144;2023-06-22T04:58:06;100586.72;;;22.07;85.69
77227;BME280;66234;47.642;19.144;2023-06-22T05:01:09;100586.19;;;22.10;85.86
77227;BME280;66234;47.642;19.144;2023-06-22T05:04:13;100587.53;;;22.23;83.96
77227;BME280;66234;47.642;19.144;2023-06-22T05:07:15;100585.06;;;22.16;84.69
77227;BME280;66234;47.642;19.144;2023-06-22T05:10:19;100581.53;;;21.91;85.28
77227;BME280;66234;47.642;19.144;2023-06-22T05:13:22;100597.63;;;22.02;85.83
77227;BME280;66234;47.642;19.144;2023-06-22T05:16:28;100600.03;;;22.29;83.67
77227;BME280;66234;47.642;19.144;2023-06-22T05:19:31;100592.69;;;22.19;84.40
77227;BME280;66234;47.642;19.144;2023-06-22T05:22:36;100605.19;;;22.35;83.47
77227;BME280;66234;47.642;19.144;2023-06-22T05:25:39;100607.09;;;22.35;83.41
77227;BME280;66234;47.642;19.144;2023-06-22T05:28:41;100607.38;;;22.38;83.91
77227;BME280;66234;47.642;19.144;2023-06-22T05:31:44;100610.06;;;22.43;83.66
77227;BME280;66234;47.642;19.144;2023-06-22T05:34:46;100609.59;;;22.16;84.95
77227;BME280;66234;47.642;19.144;2023-06-22T05:37:49;100615.31;;;22.05;84.59
77227;BME280;66234;47.642;19.144;2023-06-22T05:40:52;100603.59;;;22.14;84.45
77227;BME280;66234;47.642;19.144;2023-06-22T05:43:54;100616.06;;;22.40;84.22
77227;BME280;66234;47.642;19.144;2023-06-22T05:46:57;100618.25;;;22.48;83.89
77227;BME280;66234;47.642;19.144;2023-06-22T05:49:59;100620.94;;;22.63;83.18
77227;BME280;66234;47.642;19.144;2023-06-22T05:53:02;100628.84;;;22.75;82.79
77227;BME280;66234;47.642;19.144;2023-06-22T05:56:05;100624.22;;;22.65;81.90
77227;BME280;66234;47.642;19.144;2023-06-22T05:59:07;100629.63;;;22.86;81.01
77227;BME280;66234;47.642;19.144;2023-06-22T06:02:10;100624.72;;;22.83;80.06
77227;BME280;66234;47.642;19.144;2023-06-22T06:05:14;100629.59;;;22.91;80.40
77227;BME280;66234;47.642;19.144;2023-06-22T06:08:17;100625.47;;;23.03;79.97
77227;BME280;66234;47.642;19.144;2023-06-22T06:11:20;100628.13;;;23.13;78.37
77227;BME280;66234;47.642;19.144;2023-06-22T06:14:22;100627.00;;;23.19;78.86
77227;BME280;66234;47.642;19.144;2023-06-22T06:17:25;100628.34;;;23.27;77.39
77227;BME280;66234;47.642;19.144;2023-06-22T06:20:27;100633.78;;;23.37;76.00
77227;BME280;66234;47.642;19.144;2023-06-22T06:23:31;100636.47;;;23.42;75.00
77227;BME280;66234;47.642;19.144;2023-06-22T06:26:33;100630.34;;;23.60;74.56
77227;BME280;66234;47.642;19.144;2023-06-22T06:29:38;100629.44;;;23.74;73.85
77227;BME280;66234;47.642;19.144;2023-06-22T06:32:41;100632.59;;;23.91;73.59
77227;BME280;66234;47.642;19.144;2023-06-22T06:35:44;100627.63;;;23.98;73.67
77227;BME280;66234;47.642;19.144;2023-06-22T06:38:47;100629.53;;;23.98;72.83
77227;BME280;66234;47.642;19.144;2023-06-22T06:41:49;100635.41;;;24.15;72.59
77227;BME280;66234;47.642;19.144;2023-06-22T06:44:54;100634.25;;;24.21;72.12
77227;BME280;66234;47.642;19.144;2023-06-22T06:47:57;100633.16;;;24.22;71.55
77227;BME280;66234;47.642;19.144;2023-06-22T06:51:00;100619.41;;;24.32;70.84
77227;BME280;66234;47.642;19.144;2023-06-22T06:54:02;100625.63;;;24.38;71.15
77227;BME280;66234;47.642;19.144;2023-06-22T06:57:05;100632.28;;;24.55;69.95
77227;BME280;66234;47.642;19.144;2023-06-22T07:00:10;100627.38;;;24.52;63.42
77227;BME280;66234;47.642;19.144;2023-06-22T07:03:15;100619.97;;;24.58;64.93
77227;BME280;66234;47.642;19.144;2023-06-22T07:06:17;100619.06;;;24.67;63.88
77227;BME280;66234;47.642;19.144;2023-06-22T07:09:20;100616.69;;;24.84;63.16
77227;BME280;66234;47.642;19.144;2023-06-22T07:12:22;100617.03;;;25.01;61.33
77227;BME280;66234;47.642;19.144;2023-06-22T07:15:25;100617.47;;;25.08;60.97
77227;BME280;66234;47.642;19.144;2023-06-22T07:18:27;100621.09;;;25.22;58.62
77227;BME280;66234;47.642;19.144;2023-06-22T07:21:31;100622.97;;;25.27;58.12
77227;BME280;66234;47.642;19.144;2023-06-22T07:24:33;100626.56;;;25.46;56.00
77227;BME280;66234;47.642;19.144;2023-06-22T07:27:43;100625.06;;;25.53;56.00
77227;BME280;66234;47.642;19.144;2023-06-22T07:30:46;100622.69;;;25.65;57.75
77227;BME280;66234;47.642;19.144;2023-06-22T07:33:48;100620.59;;;25.76;55.54
77227;BME280;66234;47.642;19.144;2023-06-22T07:36:51;100627.47;;;25.92;54.47
77227;BME280;66234;47.642;19.144;2023-06-22T07:39:53;100622.97;;;26.01;54.76
77227;BME280;66234;47.642;19.144;2023-06-22T07:43:01;100635.63;;;25.97;55.15
77227;BME280;66234;47.642;19.144;2023-06-22T07:46:03;100623.59;;;26.12;56.49
77227;BME280;66234;47.642;19.144;2023-06-22T07:49:06;100626.50;;;26.20;55.54
77227;BME280;66234;47.642;19.144;2023-06-22T07:52:10;100621.16;;;26.10;54.84
77227;BME280;66234;47.642;19.144;2023-06-22T07:55:16;100621.13;;;26.29;54.50
77227;BME280;66234;47.642;19.144;2023-06-22T07:58:21;100620.41;;;26.37;54.33
77227;BME280;66234;47.642;19.144;2023-06-22T08:01:23;100608.47;;;26.46;54.84
77227;BME280;66234;47.642;19.144;2023-06-22T08:04:27;100611.13;;;26.51;54.48
77227;BME280;66234;47.642;19.144;2023-06-22T08:07:31;100608.72;;;26.63;54.20
77227;BME280;66234;47.642;19.144;2023-06-22T08:10:35;100599.25;;;26.69;54.96
77227;BME280;66234;47.642;19.144;2023-06-22T08:13:38;100596.50;;;26.69;53.85
77227;BME280;66234;47.642;19.144;2023-06-22T08:16:41;100596.22;;;26.71;52.21
77227;BME280;66234;47.642;19.144;2023-06-22T08:19:44;100588.56;;;26.81;50.75
77227;BME280;66234;47.642;19.144;2023-06-22T08:22:47;100591.91;;;26.92;50.72
77227;BME280;66234;47.642;19.144;2023-06-22T08:25:49;100597.81;;;26.99;49.15
77227;BME280;66234;47.642;19.144;2023-06-22T08:28:52;100592.84;;;26.87;51.18
77227;BME280;66234;47.642;19.144;2023-06-22T08:31:55;100583.25;;;27.12;51.11
77227;BME280;66234;47.642;19.144;2023-06-22T08:34:58;100587.09;;;27.38;48.36
77227;BME280;66234;47.642;19.144;2023-06-22T08:38:00;100588.16;;;27.51;48.89
77227;BME280;66234;47.642;19.144;2023-06-22T08:41:04;100582.81;;;27.32;49.06
77227;BME280;66234;47.642;19.144;2023-06-22T08:44:07;100581.72;;;27.33;49.22
77227;BME280;66234;47.642;19.144;2023-06-22T08:47:09;100590.47;;;27.35;49.21
77227;BME280;66234;47.642;19.144;2023-06-22T08:50:12;100575.97;;;27.43;49.59
77227;BME280;66234;47.642;19.144;2023-06-22T08:53:15;100581.75;;;27.55;48.98
77227;BME280;66234;47.642;19.144;2023-06-22T08:56:19;100576.13;;;27.60;48.87
77227;BME280;66234;47.642;19.144;2023-06-22T08:59:21;100579.63;;;27.52;49.72
77227;BME280;66234;47.642;19.144;2023-06-22T09:02:27;100572.75;;;27.63;48.98
77227;BME280;66234;47.642;19.144;2023-06-22T09:05:34;100568.59;;;27.66;49.04
77227;BME280;66234;47.642;19.144;2023-06-22T09:08:36;100570.22;;;27.89;48.63
77227;BME280;66234;47.642;19.144;2023-06-22T09:11:40;100562.81;;;27.89;48.42
77227;BME280;66234;47.642;19.144;2023-06-22T09:14:42;100566.19;;;28.17;48.78
77227;BME280;66234;47.642;19.144;2023-06-22T09:17:45;100560.31;;;28.10;48.69
77227;BME280;66234;47.642;19.144;2023-06-22T09:20:49;100554.09;;;28.26;47.93
77227;BME280;66234;47.642;19.144;2023-06-22T09:23:52;100554.69;;;28.15;47.89
77227;BME280;66234;47.642;19.144;2023-06-22T09:26:54;100553.03;;;28.44;47.60
77227;BME280;66234;47.642;19.144;2023-06-22T09:29:57;100547.50;;;28.66;47.83
77227;BME280;66234;47.642;19.144;2023-06-22T09:33:00;100544.25;;;28.64;47.17
77227;BME280;66234;47.642;19.144;2023-06-22T09:36:06;100545.53;;;28.58;47.03
77227;BME280;66234;47.642;19.144;2023-06-22T09:39:12;100545.53;;;28.67;47.58
77227;BME280;66234;47.642;19.144;2023-06-22T09:42:14;100541.88;;;28.88;47.41
77227;BME280;66234;47.642;19.144;2023-06-22T09:45:17;100537.34;;;28.92;47.26
77227;BME280;66234;47.642;19.144;2023-06-22T09:48:19;100544.31;;;28.99;46.21
77227;BME280;66234;47.642;19.144;2023-06-22T09:51:23;100535.13;;;29.29;45.76
77227;BME280;66234;47.642;19.144;2023-06-22T09:54:26;100542.75;;;29.49;46.76
77227;BME280;66234;47.642;19.144;2023-06-22T09:57:29;100535.16;;;29.37;46.45
77227;BME280;66234;47.642;19.144;2023-06-22T10:00:31;100536.44;;;29.31;45.67
77227;BME280;66234;47.642;19.144;2023-06-22T10:03:34;100541.78;;;29.45;45.75
77227;BME280;66234;47.642;19.144;2023-06-22T10:06:37;100540.00;;;29.32;46.01
77227;BME280;66234;47.642;19.144;2023-06-22T10:09:43;100541.78;;;29.28;46.75
77227;BME280;66234;47.642;19.144;2023-06-22T10:12:47;100540.47;;;29.51;45.20
77227;BME280;66234;47.642;19.144;2023-06-22T10:15:50;100547.13;;;29.75;44.29
77227;BME280;66234;47.642;19.144;2023-06-22T10:18:54;100542.59;;;29.79;43.91
77227;BME280;66234;47.642;19.144;2023-06-22T10:21:56;100536.09;;;29.84;43.73
77227;BME280;66234;47.642;19.144;2023-06-22T10:24:59;100534.00;;;29.81;43.60
77227;BME280;66234;47.642;19.144;2023-06-22T10:28:02;100536.09;;;29.84;43.79
77227;BME280;66234;47.642;19.144;2023-06-22T10:31:04;100524.63;;;30.28;44.05
77227;BME280;66234;47.642;19.144;2023-06-22T10:34:07;100531.66;;;30.55;45.18
77227;BME280;66234;47.642;19.144;2023-06-22T10:37:09;100530.94;;;30.66;44.09
77227;BME280;66234;47.642;19.144;2023-06-22T10:40:13;100523.28;;;30.72;41.83
77227;BME280;66234;47.642;19.144;2023-06-22T10:43:16;100524.63;;;30.57;43.40
77227;BME280;66234;47.642;19.144;2023-06-22T10:46:18;100527.38;;;30.36;42.71
77227;BME280;66234;47.642;19.144;2023-06-22T10:49:21;100521.78;;;30.45;42.30
77227;BME280;66234;47.642;19.144;2023-06-22T10:52:24;100516.47;;;30.69;41.64
77227;BME280;66234;47.642;19.144;2023-06-22T10:55:26;100508.78;;;30.83;40.25
77227;BME280;66234;47.642;19.144;2023-06-22T10:58:42;100511.16;;;31.14;40.64
77227;BME280;66234;47.642;19.144;2023-06-22T11:01:45;100512.84;;;31.06;40.36
77227;BME280;66234;47.642;19.144;2023-06-22T11:04:48;100516.25;;;31.24;40.19
77227;BME280;66234;47.642;19.144;2023-06-22T11:07:50;100510.28;;;31.75;39.18
77227;BME280;66234;47.642;19.144;2023-06-22T11:10:53;100507.88;;;31.53;39.15
77227;BME280;66234;47.642;19.144;2023-06-22T11:13:56;100499.91;;;31.72;38.11
77227;BME280;66234;47.642;19.144;2023-06-22T11:16:59;100505.00;;;31.82;39.32
77227;BME280;66234;47.642;19.144;2023-06-22T11:20:01;100499.59;;;31.53;39.84
77227;BME280;66234;47.642;19.144;2023-06-22T11:23:08;100503.28;;;31.77;39.72
77227;BME280;66234;47.642;19.144;2023-06-22T11:26:10;100494.38;;;32.17;37.95
77227;BME280;66234;47.642;19.144;2023-06-22T11:29:13;100497.34;;;32.00;39.58
77227;BME280;66234;47.642;19.144;2023-06-22T11:32:34;100497.75;;;31.77;40.78
77227;BME280;66234;47.642;19.144;2023-06-22T11:35:36;100498.22;;;32.60;37.78
77227;BME280;66234;47.642;19.144;2023-06-22T11:38:39;100501.78;;;32.61;36.84
77227;BME280;66234;47.642;19.144;2023-06-22T11:41:42;100491.44;;;33.21;36.43
77227;BME280;66234;47.642;19.144;2023-06-22T11:44:45;100490.66;;;32.85;36.62
77227;BME280;66234;47.642;19.144;2023-06-22T11:47:47;100485.63;;;32.75;37.55
77227;BME280;66234;47.642;19.144;2023-06-22T11:50:50;100489.06;;;32.84;37.66
77227;BME280;66234;47.642;19.144;2023-06-22T11:53:53;100483.91;;;33.22;36.26
77227;BME280;66234;47.642;19.144;2023-06-22T11:56:56;100474.88;;;33.80;36.76
77227;BME280;66234;47.642;19.144;2023-06-22T11:59:59;100480.81;;;34.25;35.27
77227;BME280;66234;47.642;19.144;2023-06-22T12:03:02;100480.03;;;34.90;33.90
77227;BME280;66234;47.642;19.144;2023-06-22T12:06:07;100470.25;;;34.46;34.64
77227;BME280;66234;47.642;19.144;2023-06-22T12:09:10;100479.03;;;35.18;32.61
77227;BME280;66234;47.642;19.144;2023-06-22T12:12:12;100459.56;;;34.99;33.54
77227;BME280;66234;47.642;19.144;2023-06-22T12:15:15;100455.41;;;35.88;33.22
77227;BME280;66234;47.642;19.144;2023-06-22T12:18:18;100455.09;;;35.51;32.99
77227;BME280;66234;47.642;19.144;2023-06-22T12:21:23;100456.69;;;36.16;31.83
77227;BME280;66234;47.642;19.144;2023-06-22T12:24:25;100445.13;;;36.37;30.38
77227;BME280;66234;47.642;19.144;2023-06-22T12:27:28;100436.25;;;35.64;32.03
77227;BME280;66234;47.642;19.144;2023-06-22T12:30:33;100439.00;;;36.80;30.33
77227;BME280;66234;47.642;19.144;2023-06-22T12:33:35;100427.31;;;37.01;30.18
77227;BME280;66234;47.642;19.144;2023-06-22T12:36:38;100430.00;;;36.64;30.43
77227;BME280;66234;47.642;19.144;2023-06-22T12:39:41;100426.59;;;37.07;30.14
77227;BME280;66234;47.642;19.144;2023-06-22T12:42:45;100425.84;;;38.24;28.93
77227;BME280;66234;47.642;19.144;2023-06-22T12:45:47;100422.59;;;37.34;29.62
77227;BME280;66234;47.642;19.144;2023-06-22T12:48:50;100424.47;;;38.04;28.79
77227;BME280;66234;47.642;19.144;2023-06-22T12:51:53;100416.88;;;37.24;30.08
77227;BME280;66234;47.642;19.144;2023-06-22T12:54:55;100413.72;;;37.25;30.29
77227;BME280;66234;47.642;19.144;2023-06-22T12:57:58;100416.00;;;37.97;28.97
77227;BME280;66234;47.642;19.144;2023-06-22T13:01:01;100425.19;;;37.97;28.96
77227;BME280;66234;47.642;19.144;2023-06-22T13:04:03;100410.97;;;36.99;29.46
77227;BME280;66234;47.642;19.144;2023-06-22T13:07:06;100413.34;;;37.27;29.33
77227;BME280;66234;47.642;19.144;2023-06-22T13:10:24;100409.03;;;38.85;27.75
77227;BME280;66234;47.642;19.144;2023-06-22T13:13:26;100405.13;;;38.96;27.00
77227;BME280;66234;47.642;19.144;2023-06-22T13:16:29;100396.44;;;39.22;26.18
77227;BME280;66234;47.642;19.144;2023-06-22T13:19:32;100399.66;;;39.24;26.83
77227;BME280;66234;47.642;19.144;2023-06-22T13:22:35;100380.94;;;39.60;26.34
77227;BME280;66234;47.642;19.144;2023-06-22T13:25:45;100387.59;;;39.10;27.05
77227;BME280;66234;47.642;19.144;2023-06-22T13:28:48;100386.78;;;38.34;27.69
77227;BME280;66234;47.642;19.144;2023-06-22T13:31:50;100389.66;;;38.41;27.81
77227;BME280;66234;47.642;19.144;2023-06-22T13:34:53;100377.94;;;38.93;26.90
77227;BME280;66234;47.642;19.144;2023-06-22T13:37:56;100381.88;;;38.78;26.66
77227;BME280;66234;47.642;19.144;2023-06-22T13:40:58;100372.94;;;40.36;25.38
77227;BME280;66234;47.642;19.144;2023-06-22T13:44:02;100378.94;;;40.20;25.43
77227;BME280;66234;47.642;19.144;2023-06-22T13:47:05;100374.41;;;40.79;24.58
77227;BME280;66234;47.642;19.144;2023-06-22T13:50:08;100359.81;;;41.19;24.19
77227;BME280;66234;47.642;19.144;2023-06-22T13:53:11;100362.19;;;41.21;24.25
77227;BME280;66234;47.642;19.144;2023-06-22T13:56:14;100367.22;;;40.74;24.73
77227;BME280;66234;47.642;19.144;2023-06-22T13:59:17;100367.31;;;39.62;26.19
77227;BME280;66234;47.642;19.144;2023-06-22T14:02:20;100361.66;;;39.23;26.70
77227;BME280;66234;47.642;19.144;2023-06-22T14:05:23;100358.13;;;39.72;25.77
77227;BME280;66234;47.642;19.144;2023-06-22T14:08:25;100355.47;;;40.97;23.86
77227;BME280;66234;47.642;19.144;2023-06-22T14:11:43;100354.66;;;41.69;23.92
77227;BME280;66234;47.642;19.144;2023-06-22T14:14:46;100350.44;;;42.35;22.67
77227;BME280;66234;47.642;19.144;2023-06-22T14:17:48;100344.66;;;43.09;21.87
77227;BME280;66234;47.642;19.144;2023-06-22T14:20:54;100341.59;;;40.65;24.71
77227;BME280;66234;47.642;19.144;2023-06-22T14:23:56;100333.91;;;40.83;24.39
77227;BME280;66234;47.642;19.144;2023-06-22T14:26:59;100336.09;;;41.27;24.05
77227;BME280;66234;47.642;19.144;2023-06-22T14:30:05;100329.13;;;41.97;23.70
77227;BME280;66234;47.642;19.144;2023-06-22T14:33:08;100324.69;;;43.00;22.26
77227;BME280;66234;47.642;19.144;2023-06-22T14:36:11;100332.22;;;42.09;23.59
77227;BME280;66234;47.642;19.144;2023-06-22T14:39:18;100324.75;;;42.33;24.00
77227;BME280;66234;47.642;19.144;2023-06-22T14:42:22;100317.94;;;42.64;22.89
77227;BME280;66234;47.642;19.144;2023-06-22T14:45:25;100312.97;;;43.05;22.08
77227;BME280;66234;47.642;19.144;2023-06-22T14:48:28;100318.22;;;42.43;23.50
77227;BME280;66234;47.642;19.144;2023-06-22T14:51:31;100323.13;;;42.66;23.08
77227;BME280;66234;47.642;19.144;2023-06-22T14:54:33;100313.53;;;42.29;23.04
77227;BME280;66234;47.642;19.144;2023-06-22T14:57:36;100314.84;;;42.55;22.96
77227;BME280;66234;47.642;19.144;2023-06-22T15:00:39;100310.38;;;42.91;22.60
77227;BME280;66234;47.642;19.144;2023-06-22T15:03:42;100305.22;;;43.39;21.86
77227;BME280;66234;47.642;19.144;2023-06-22T15:06:44;100297.72;;;43.03;22.29
77227;BME280;66234;47.642;19.144;2023-06-22T15:09:47;100296.84;;;43.36;21.70
77227;BME280;66234;47.642;19.144;2023-06-22T15:12:50;100296.94;;;43.02;22.08
77227;BME280;66234;47.642;19.144;2023-06-22T15:15:53;100289.34;;;42.39;22.81
77227;BME280;66234;47.642;19.144;2023-06-22T15:18:55;100286.13;;;42.41;23.41
77227;BME280;66234;47.642;19.144;2023-06-22T15:21:58;100277.56;;;42.14;23.37
77227;BME280;66234;47.642;19.144;2023-06-22T15:25:00;100278.59;;;42.27;23.21
77227;BME280;66234;47.642;19.144;2023-06-22T15:28:05;100279.19;;;43.05;22.01
77227;BME280;66234;47.642;19.144;2023-06-22T15:31:08;100279.09;;;42.56;22.59
77227;BME280;66234;47.642;19.144;2023-06-22T15:34:13;100288.34;;;41.78;23.78
77227;BME280;66234;47.642;19.144;2023-06-22T15:37:16;100284.78;;;40.47;25.73
77227;BME280;66234;47.642;19.144;2023-06-22T15:40:19;100277.75;;;40.91;25.50
77227;BME280;66234;47.642;19.144;2023-06-22T15:43:22;100269.50;;;40.69;25.49
77227;BME280;66234;47.642;19.144;2023-06-22T15:46:24;100281.69;;;41.11;24.62
77227;BME280;66234;47.642;19.144;2023-06-22T15:49:27;100290.66;;;41.43;24.24
77227;BME280;66234;47.642;19.144;2023-06-22T15:52:30;100278.22;;;40.86;25.59
77227;BME280;66234;47.642;19.144;2023-06-22T15:55:32;100286.13;;;39.76;26.99